Terminal Aerodrome Forecast
Issued by NWS

Current Version | Previous Version | Text Only | Print | Product List | Glossary On
Versions: 1 2 3 4 5 6 7 8 9 10 11 12 13 14 15 16 17
000
FTUS44 KJAN 231100
TAFGTR
TAF
KGTR 231120Z 2312/2412 00000KT 6SM BR SCT250
     FM231400 VRB03KT P6SM SCT250
     FM231900 VRB05KT P6SM VCTS SCT050CB BKN150
     FM240800 00000KT 5SM BR VCSH SCT035 BKN100=

USA.gov is the U.S. government's official web portal to all federal, state and local government web resources and services.